createdAt,value
2022-11-16T00:00:16.163Z,-0.87
2022-11-16T00:02:43.480Z,-1.74
2022-11-16T00:05:42.820Z,-1.40
2022-11-16T00:08:17.272Z,0.08
2022-11-16T00:10:55.570Z,-1.17
2022-11-16T00:13:29.896Z,0.92
2022-11-16T00:18:45.121Z,-2.75
2022-11-16T00:21:17.062Z,-2.54
2022-11-16T00:24:04.952Z,0.19
2022-11-16T00:26:45.054Z,-2.40
2022-11-16T00:29:44.281Z,1.03
2022-11-16T00:32:11.784Z,-2.30
2022-11-16T00:34:41.992Z,-1.30
2022-11-16T00:37:22.491Z,-2.27
2022-11-16T00:39:55.396Z,-2.30
2022-11-16T00:45:25.501Z,-1.42
2022-11-16T00:48:00.564Z,0.55
2022-11-16T00:50:36.618Z,0.30
2022-11-16T00:53:21.656Z,0.14
2022-11-16T00:55:55.363Z,-0.63
2022-11-16T00:58:42.734Z,-0.76
2022-11-16T01:01:14.174Z,-0.76
2022-11-16T01:03:51.576Z,-0.49
2022-11-16T01:06:27.676Z,1.00
2022-11-16T01:08:59.021Z,0.96
2022-11-16T01:11:41.702Z,-2.02
2022-11-16T01:14:18.361Z,-1.74
2022-11-16T01:16:56.237Z,-1.24
2022-11-16T01:19:33.500Z,-2.38
2022-11-16T01:22:10.392Z,-1.35
2022-11-16T01:24:45.442Z,0.11
2022-11-16T01:27:16.252Z,1.19
2022-11-16T01:29:43.950Z,0.66
2022-11-16T01:32:18.959Z,-1.67
2022-11-16T01:34:54.517Z,-0.74
2022-11-16T01:37:34.256Z,-0.10
2022-11-16T01:40:07.162Z,1.36
2022-11-16T01:42:57.542Z,-1.45
2022-11-16T01:45:41.487Z,-0.55
2022-11-16T01:48:23.685Z,-0.86
2022-11-16T01:50:56.836Z,-0.65
2022-11-16T01:53:43.289Z,-1.91
2022-11-16T01:56:19.382Z,-0.76
2022-11-16T01:59:01.000Z,0.51
2022-11-16T02:01:32.330Z,-1.16
2022-11-16T02:03:59.481Z,0.23
2022-11-16T02:06:26.903Z,1.77
2022-11-16T02:09:29.429Z,1.67
2022-11-16T02:12:03.494Z,0.74
2022-11-16T02:14:59.535Z,-0.76
2022-11-16T02:17:34.916Z,1.85
2022-11-16T02:20:23.178Z,1.91
2022-11-16T02:23:10.877Z,1.98
2022-11-16T02:26:01.081Z,1.83
2022-11-16T02:28:47.166Z,1.86
2022-11-16T02:31:26.723Z,0.07
2022-11-16T02:34:04.684Z,-0.76
2022-11-16T02:36:38.880Z,0.90
2022-11-16T02:39:19.077Z,0.86
2022-11-16T02:41:49.623Z,-0.71
2022-11-16T02:44:27.899Z,0.03
2022-11-16T02:47:00.297Z,-0.51
2022-11-16T02:49:35.738Z,0.29
2022-11-16T02:52:19.323Z,2.23
2022-11-16T02:54:54.467Z,0.13
2022-11-16T02:57:43.002Z,0.65
2022-11-16T03:00:18.902Z,1.19
2022-11-16T03:02:54.778Z,2.42
2022-11-16T03:05:46.651Z,-1.52
2022-11-16T03:08:23.155Z,2.34
2022-11-16T03:10:58.939Z,0.22
2022-11-16T03:13:33.829Z,-0.96
2022-11-16T03:16:08.202Z,2.14
2022-11-16T03:18:41.470Z,1.91
2022-11-16T03:21:27.556Z,0.75
2022-11-16T03:23:55.163Z,-1.38
2022-11-16T03:26:25.637Z,-0.07
2022-11-16T03:29:12.213Z,-1.22
2022-11-16T03:31:49.138Z,-1.70
2022-11-16T03:34:28.316Z,2.09
2022-11-16T03:36:58.043Z,1.65
2022-11-16T03:39:36.363Z,1.42
2022-11-16T03:42:12.642Z,-0.66
2022-11-16T03:44:50.588Z,1.95
2022-11-16T03:47:27.519Z,-0.28
2022-11-16T03:50:03.540Z,-0.27
2022-11-16T03:52:41.508Z,0.22
2022-11-16T03:55:15.037Z,-1.49
2022-11-16T03:57:47.115Z,-0.06
2022-11-16T04:00:20.895Z,1.98
2022-11-16T04:02:52.070Z,-0.23
2022-11-16T04:05:20.076Z,-0.47
2022-11-16T04:07:49.232Z,0.07
2022-11-16T04:10:23.918Z,0.53
2022-11-16T04:12:54.373Z,-0.67
2022-11-16T04:15:24.174Z,-1.30
2022-11-16T04:17:53.671Z,-1.36
2022-11-16T04:20:31.137Z,0.66
2022-11-16T04:23:17.462Z,-0.56
2022-11-16T04:25:52.806Z,0.39
2022-11-16T04:31:19.962Z,-0.29
2022-11-16T04:33:51.045Z,1.56
2022-11-16T04:36:32.654Z,-0.22
2022-11-16T04:39:03.119Z,1.40
2022-11-16T04:41:33.796Z,-1.40
2022-11-16T04:44:01.105Z,-1.27
2022-11-16T04:46:31.050Z,1.41
2022-11-16T04:49:03.037Z,1.83
2022-11-16T04:51:52.133Z,-1.39
2022-11-16T04:54:24.138Z,2.01
2022-11-16T04:56:54.570Z,-1.04
2022-11-16T04:59:23.858Z,0.07
2022-11-16T05:01:57.323Z,-0.63
2022-11-16T05:04:47.607Z,0.38
2022-11-16T05:07:31.548Z,0.04
2022-11-16T05:10:14.609Z,1.99
2022-11-16T05:12:47.283Z,-0.14
2022-11-16T05:15:15.048Z,-1.09
2022-11-16T05:18:04.116Z,1.13
2022-11-16T05:20:42.337Z,1.93
2022-11-16T05:23:12.486Z,-1.37
2022-11-16T05:25:48.806Z,-0.66
2022-11-16T05:28:25.407Z,0.07
2022-11-16T05:30:54.814Z,-1.80
2022-11-16T05:33:28.456Z,-1.16
2022-11-16T05:36:03.303Z,-0.30
2022-11-16T05:38:36.688Z,-1.08
2022-11-16T05:43:55.816Z,2.10
2022-11-16T05:46:38.237Z,0.67
2022-11-16T05:49:08.963Z,2.15
2022-11-16T05:52:34.977Z,2.00
2022-11-16T05:57:43.771Z,-0.82
2022-11-16T06:00:17.541Z,0.25
2022-11-16T06:02:49.365Z,0.54
2022-11-16T06:05:40.699Z,0.38
2022-11-16T06:08:42.407Z,2.43
2022-11-16T06:11:11.367Z,-0.81
2022-11-16T06:14:22.494Z,-0.76
2022-11-16T06:20:43.681Z,1.15
2022-11-16T06:23:34.557Z,2.46
2022-11-16T06:29:40.999Z,0.51
2022-11-16T06:32:15.424Z,0.86
2022-11-16T06:34:46.278Z,2.10
2022-11-16T06:43:05.942Z,-0.43
2022-11-16T06:46:24.479Z,0.88
2022-11-16T06:49:00.221Z,2.30
2022-11-16T06:51:38.592Z,-0.23
2022-11-16T06:54:44.969Z,0.76
2022-11-16T06:57:18.995Z,-0.37
2022-11-16T06:59:50.368Z,2.35
2022-11-16T07:34:13.000Z,0.28
2022-11-16T07:36:21.410Z,0.50
2022-11-16T07:38:51.979Z,1.76
2022-11-16T07:41:20.663Z,1.04
2022-11-16T08:05:10.729Z,1.46
2022-11-16T08:08:05.967Z,1.18
2022-11-16T08:14:11.484Z,4.71
2022-11-16T08:16:44.034Z,2.10
2022-11-16T08:23:01.131Z,1.58
2022-11-16T08:25:37.329Z,5.13
2022-11-16T08:28:09.287Z,4.08
2022-11-16T08:30:43.439Z,4.73
2022-11-16T08:33:18.288Z,1.90
2022-11-16T08:38:46.327Z,1.75
2022-11-16T08:44:12.361Z,3.23
2022-11-16T08:46:48.861Z,3.38
2022-11-16T08:52:47.326Z,5.74
2022-11-16T08:55:26.420Z,2.88
2022-11-16T08:58:35.878Z,5.59
2022-11-16T09:01:18.061Z,2.73
2022-11-16T09:03:46.842Z,3.05
2022-11-16T09:09:40.613Z,4.55
2022-11-16T09:29:16.214Z,6.71
2022-11-16T09:32:09.433Z,3.47
2022-11-16T09:34:55.925Z,3.90
2022-11-16T09:51:11.240Z,6.39
2022-11-16T09:54:15.972Z,7.50
2022-11-16T09:57:18.879Z,7.45
2022-11-16T10:00:13.607Z,4.93
2022-11-16T10:03:15.136Z,6.85
2022-11-16T10:06:00.659Z,9.03
2022-11-16T10:08:52.491Z,6.52
2022-11-16T10:12:04.890Z,10.28
2022-11-16T10:25:26.370Z,10.38
2022-11-16T10:28:05.917Z,11.64
2022-11-16T10:30:44.979Z,10.59
2022-11-16T10:33:18.955Z,11.79
2022-11-16T10:35:50.090Z,11.38
2022-11-16T10:38:20.475Z,11.29
2022-11-16T10:40:52.732Z,11.37
2022-11-16T10:43:31.406Z,12.05
2022-11-16T10:46:24.569Z,12.65
2022-11-16T10:49:07.359Z,13.18
2022-11-16T10:51:34.246Z,12.12
2022-11-16T10:54:01.380Z,12.19
2022-11-16T10:56:42.730Z,11.35
2022-11-16T10:59:11.559Z,12.68
2022-11-16T11:01:41.084Z,11.85
2022-11-16T11:04:30.013Z,11.67
2022-11-16T11:07:29.399Z,11.50
2022-11-16T11:09:57.141Z,9.29
2022-11-16T11:12:26.245Z,9.19
2022-11-16T11:15:26.281Z,10.86
2022-11-16T11:18:17.482Z,10.92
2022-11-16T11:20:48.751Z,10.22
2022-11-16T11:23:26.453Z,11.34
2022-11-16T11:26:01.221Z,9.65
2022-11-16T11:28:30.098Z,10.85
2022-11-16T11:31:04.199Z,11.23
2022-11-16T11:33:41.595Z,7.57
2022-11-16T11:36:16.011Z,11.06
2022-11-16T11:42:21.324Z,10.72
2022-11-16T11:45:00.285Z,7.68
2022-11-16T11:47:57.320Z,10.54
2022-11-16T11:50:47.960Z,9.15
2022-11-16T11:53:47.731Z,11.03
2022-11-16T11:56:15.284Z,9.00
2022-11-16T11:58:43.609Z,10.47
2022-11-16T12:01:29.050Z,11.27
2022-11-16T12:04:33.233Z,10.51
2022-11-16T12:07:22.337Z,11.00
2022-11-16T12:10:01.486Z,10.98
2022-11-16T12:12:44.214Z,9.89
2022-11-16T12:15:34.084Z,10.92
2022-11-16T12:18:39.213Z,10.80
2022-11-16T12:21:20.932Z,9.93
2022-11-16T12:24:03.240Z,9.73
2022-11-16T12:26:54.168Z,10.70
2022-11-16T12:29:24.635Z,10.70
2022-11-16T12:32:11.092Z,9.85
2022-11-16T12:34:37.993Z,10.54
2022-11-16T12:37:16.513Z,10.32
2022-11-16T12:39:49.432Z,10.39
2022-11-16T12:42:21.857Z,10.58
2022-11-16T12:45:13.898Z,10.71
2022-11-16T12:47:59.000Z,10.72
2022-11-16T12:50:45.515Z,10.17
2022-11-16T12:53:41.167Z,8.48
2022-11-16T12:56:17.001Z,10.85
2022-11-16T12:59:15.536Z,10.18
2022-11-16T13:02:06.123Z,10.94
2022-11-16T13:04:42.528Z,11.03
2022-11-16T13:07:19.471Z,10.78
2022-11-16T13:09:51.430Z,10.03
2022-11-16T13:12:22.216Z,11.02
2022-11-16T13:14:53.617Z,11.02
2022-11-16T13:17:39.873Z,10.61
2022-11-16T13:20:15.095Z,10.96
2022-11-16T13:22:51.401Z,10.76
2022-11-16T13:25:23.737Z,11.03
2022-11-16T13:27:55.734Z,9.82
2022-11-16T13:30:27.873Z,10.80
2022-11-16T13:33:25.410Z,10.68
2022-11-16T13:35:52.552Z,9.22
2022-11-16T13:38:52.322Z,10.26
2022-11-16T13:41:36.236Z,10.49
2022-11-16T13:44:11.155Z,9.77
2022-11-16T13:47:00.214Z,9.11
2022-11-16T13:49:29.722Z,9.83
2022-11-16T13:52:26.633Z,10.53
2022-11-16T13:54:55.699Z,10.36
2022-11-16T13:57:27.085Z,10.34
2022-11-16T14:00:09.606Z,10.21
2022-11-16T14:02:39.840Z,10.48
2022-11-16T14:05:12.700Z,10.47
2022-11-16T14:07:40.797Z,10.40
2022-11-16T14:10:07.812Z,10.43
2022-11-16T14:12:37.672Z,10.40
2022-11-16T14:15:22.371Z,10.42
2022-11-16T14:18:07.796Z,10.43
2022-11-16T14:20:57.807Z,10.41
2022-11-16T14:23:49.358Z,9.37
2022-11-16T14:26:37.417Z,10.35
2022-11-16T14:29:04.237Z,10.30
2022-11-16T14:31:55.323Z,10.18
2022-11-16T14:34:32.600Z,10.03
2022-11-16T14:37:00.520Z,8.75
2022-11-16T14:39:32.118Z,10.18
2022-11-16T14:42:03.752Z,9.22
2022-11-16T14:44:35.720Z,10.13
2022-11-16T14:47:03.283Z,10.23
2022-11-16T14:49:34.748Z,9.22
2022-11-16T14:52:04.023Z,10.01
2022-11-16T14:54:47.958Z,9.95
2022-11-16T14:57:20.513Z,9.09
2022-11-16T14:59:47.719Z,9.74
2022-11-16T15:02:25.714Z,9.79
2022-11-16T15:04:54.614Z,8.88
2022-11-16T15:07:26.741Z,9.35
2022-11-16T15:09:57.327Z,8.72
2022-11-16T15:12:28.157Z,9.32
2022-11-16T15:14:58.049Z,9.20
2022-11-16T15:17:31.845Z,9.81
2022-11-16T15:20:02.246Z,9.77
2022-11-16T15:22:39.278Z,8.85
2022-11-16T15:25:31.399Z,9.70
2022-11-16T15:28:01.576Z,9.62
2022-11-16T15:30:36.643Z,8.55
2022-11-16T15:33:10.085Z,9.55
2022-11-16T15:35:38.247Z,9.33
2022-11-16T15:38:25.810Z,9.25
2022-11-16T15:40:55.257Z,9.20
2022-11-16T15:43:25.800Z,8.97
2022-11-16T15:45:53.406Z,9.13
2022-11-16T15:48:27.641Z,8.98
2022-11-16T15:51:05.165Z,7.77
2022-11-16T15:53:39.271Z,8.88
2022-11-16T15:56:16.155Z,7.29
2022-11-16T15:58:43.396Z,8.71
2022-11-16T16:01:12.123Z,6.50
2022-11-16T16:03:39.353Z,8.48
2022-11-16T16:06:07.045Z,8.68
2022-11-16T16:08:38.656Z,8.69
2022-11-16T16:11:27.048Z,8.59
2022-11-16T16:13:59.854Z,8.42
2022-11-16T16:16:30.446Z,8.48
2022-11-16T16:19:08.159Z,8.57
2022-11-16T16:21:46.944Z,8.08
2022-11-16T16:24:36.161Z,8.57
2022-11-16T16:27:03.096Z,7.66
2022-11-16T16:29:29.870Z,7.77
2022-11-16T16:31:56.724Z,7.82
2022-11-16T16:34:23.474Z,8.35
2022-11-16T16:36:50.290Z,7.63
2022-11-16T16:39:17.171Z,8.17
2022-11-16T16:41:44.320Z,7.39
2022-11-16T16:44:17.926Z,7.47
2022-11-16T16:46:45.216Z,6.50
2022-11-16T16:49:12.046Z,6.55
2022-11-16T16:51:38.888Z,6.95
2022-11-16T16:54:06.036Z,8.27
2022-11-16T16:56:33.125Z,7.52
2022-11-16T16:59:00.330Z,7.66
2022-11-16T17:01:27.545Z,6.81
2022-11-16T17:03:54.380Z,8.06
2022-11-16T17:06:21.379Z,5.63
2022-11-16T17:08:48.438Z,7.26
2022-11-16T17:11:15.326Z,8.22
2022-11-16T17:13:42.168Z,7.44
2022-11-16T17:16:09.810Z,7.34
2022-11-16T17:18:36.687Z,7.55
2022-11-16T17:21:08.527Z,7.19
2022-11-16T17:23:37.038Z,7.05
2022-11-16T17:26:05.848Z,8.32
2022-11-16T17:28:33.843Z,6.88
2022-11-16T17:31:05.423Z,8.06
2022-11-16T17:33:36.806Z,7.50
2022-11-16T17:36:05.806Z,7.74
2022-11-16T17:38:35.954Z,7.31
2022-11-16T17:41:14.170Z,6.48
2022-11-16T17:43:43.122Z,8.35
2022-11-16T17:46:12.597Z,6.16
2022-11-16T17:48:41.497Z,7.06
2022-11-16T17:51:09.434Z,8.35
2022-11-16T17:53:38.156Z,8.35
2022-11-16T17:59:02.201Z,7.37
2022-11-16T18:01:30.466Z,5.19
2022-11-16T18:03:58.646Z,6.75
2022-11-16T18:06:40.321Z,8.19
2022-11-16T18:09:08.094Z,5.16
2022-11-16T18:11:37.254Z,8.11
2022-11-16T18:14:05.574Z,6.24
2022-11-16T18:16:34.473Z,7.73
2022-11-16T18:19:06.898Z,7.38
2022-11-16T18:21:42.082Z,7.66
2022-11-16T18:24:10.831Z,6.05
2022-11-16T18:26:39.445Z,8.08
2022-11-16T18:29:08.790Z,7.91
2022-11-16T18:31:37.793Z,6.66
2022-11-16T18:34:06.178Z,6.07
2022-11-16T18:36:34.125Z,4.47
2022-11-16T18:39:01.756Z,7.03
2022-11-16T18:41:30.246Z,8.34
2022-11-16T18:44:00.742Z,6.11
2022-11-16T18:46:33.332Z,7.62
2022-11-16T18:49:01.484Z,8.40
2022-11-16T18:51:31.081Z,8.26
2022-11-16T18:54:00.889Z,7.40
2022-11-16T18:56:28.398Z,5.36
2022-11-16T18:58:55.982Z,8.21
2022-11-16T19:01:25.402Z,8.18
2022-11-16T19:03:53.936Z,7.11
2022-11-16T19:06:22.100Z,8.19
2022-11-16T19:08:55.980Z,7.10
2022-11-16T19:11:24.492Z,8.22
2022-11-16T19:13:57.442Z,6.89
2022-11-16T19:16:25.852Z,7.06
2022-11-16T19:18:53.935Z,7.96
2022-11-16T19:21:23.641Z,8.31
2022-11-16T19:23:56.004Z,8.22
2022-11-16T19:26:28.041Z,8.20
2022-11-16T19:28:57.598Z,7.70
2022-11-16T19:31:28.211Z,8.06
2022-11-16T19:33:58.356Z,8.04
2022-11-16T19:36:29.053Z,7.97
2022-11-16T19:38:58.527Z,7.57
2022-11-16T19:41:28.281Z,7.39
2022-11-16T19:44:01.417Z,7.83
2022-11-16T19:46:34.875Z,7.81
2022-11-16T19:49:02.849Z,6.30
2022-11-16T19:51:33.253Z,7.89
2022-11-16T19:54:02.897Z,7.59
2022-11-16T19:56:31.699Z,6.65
2022-11-16T19:58:59.539Z,7.51
2022-11-16T20:01:30.477Z,7.89
2022-11-16T20:04:03.777Z,7.08
2022-11-16T20:06:39.031Z,6.10
2022-11-16T20:09:11.245Z,6.45
2022-11-16T20:11:44.053Z,5.50
2022-11-16T20:14:15.701Z,8.02
2022-11-16T20:16:49.327Z,6.67
2022-11-16T20:19:20.696Z,7.61
2022-11-16T20:21:49.993Z,7.49
2022-11-16T20:24:18.919Z,7.66
2022-11-16T20:26:48.799Z,7.85
2022-11-16T20:29:19.204Z,7.89
2022-11-16T20:31:47.117Z,6.96
2022-11-16T20:34:17.611Z,5.35
2022-11-16T20:36:48.309Z,7.65
2022-11-16T20:39:21.853Z,6.57
2022-11-16T20:41:51.047Z,7.91
2022-11-16T20:44:19.857Z,6.60
2022-11-16T20:46:47.729Z,6.00
2022-11-16T20:49:16.171Z,5.96
2022-11-16T20:51:46.156Z,6.38
2022-11-16T20:54:14.481Z,6.96
2022-11-16T20:56:46.635Z,7.48
2022-11-16T20:59:14.713Z,7.09
2022-11-16T21:01:43.654Z,6.89
2022-11-16T21:04:17.725Z,7.70
2022-11-16T21:06:46.193Z,7.19
2022-11-16T21:09:16.605Z,7.83
2022-11-16T21:11:44.714Z,6.61
2022-11-16T21:14:12.887Z,6.59
2022-11-16T21:16:42.336Z,6.91
2022-11-16T21:19:11.609Z,6.32
2022-11-16T21:21:41.980Z,7.35
2022-11-16T21:24:12.354Z,5.11
2022-11-16T21:26:41.160Z,7.73
2022-11-16T21:29:11.125Z,5.92
2022-11-16T21:31:40.846Z,6.81
2022-11-16T21:34:09.815Z,6.46
2022-11-16T21:36:36.978Z,8.06
2022-11-16T21:39:04.215Z,7.10
2022-11-16T21:41:31.259Z,6.51
2022-11-16T21:43:58.352Z,6.61
2022-11-16T21:46:27.064Z,7.30
2022-11-16T21:48:55.417Z,7.92
2022-11-16T21:51:23.805Z,7.99
2022-11-16T21:53:50.957Z,7.47
2022-11-16T21:56:20.054Z,7.81
2022-11-16T21:58:47.976Z,6.56
2022-11-16T22:01:16.438Z,7.01
2022-11-16T22:03:44.481Z,7.81
2022-11-16T22:06:17.215Z,7.07
2022-11-16T22:08:45.533Z,7.80
2022-11-16T22:11:13.896Z,6.55
2022-11-16T22:13:42.526Z,7.11
2022-11-16T22:16:14.789Z,6.94
2022-11-16T22:18:42.976Z,6.50
2022-11-16T22:21:10.643Z,7.17
2022-11-16T22:23:37.914Z,6.19
2022-11-16T22:26:08.252Z,7.40
2022-11-16T22:28:36.514Z,7.80
2022-11-16T22:31:09.656Z,6.84
2022-11-16T22:33:37.160Z,7.37
2022-11-16T22:36:05.293Z,6.28
2022-11-16T22:38:32.131Z,7.14
2022-11-16T22:40:58.897Z,5.73
2022-11-16T22:43:28.403Z,7.02
2022-11-16T22:46:03.718Z,6.92
2022-11-16T22:48:37.882Z,6.93
2022-11-16T22:51:33.917Z,7.81
2022-11-16T22:54:03.057Z,7.49
2022-11-16T22:56:32.012Z,7.77
2022-11-16T22:58:59.191Z,7.75
2022-11-16T23:01:26.291Z,7.11
2022-11-16T23:03:53.164Z,6.76
2022-11-16T23:06:20.385Z,7.79
2022-11-16T23:08:47.970Z,6.63
2022-11-16T23:11:16.901Z,8.04
2022-11-16T23:13:44.554Z,8.12
2022-11-16T23:16:11.425Z,7.09
2022-11-16T23:18:38.277Z,7.14
2022-11-16T23:21:05.284Z,7.09
2022-11-16T23:23:32.606Z,6.57
2022-11-16T23:25:59.553Z,7.22
2022-11-16T23:28:26.596Z,7.65
2022-11-16T23:30:53.535Z,6.77
2022-11-16T23:33:20.477Z,6.48
2022-11-16T23:35:47.404Z,7.73
2022-11-16T23:38:14.296Z,6.81
2022-11-16T23:40:41.215Z,7.77
2022-11-16T23:43:10.561Z,6.37
2022-11-16T23:45:38.921Z,8.03
2022-11-16T23:48:07.884Z,7.61
2022-11-16T23:50:35.160Z,6.21
2022-11-16T23:53:02.682Z,8.02
2022-11-16T23:55:31.795Z,6.95
2022-11-16T23:57:58.694Z,7.77
